N12KR KSAV-KRDU
Flight info
| Callsign | N12KR |
|---|---|
| Flight time | N/A |
| Altitude | 26000 |
| Route | SMALZ MILEN JURDI DMSTR2 |
| Aircraft | GLF6/M-SBDE2E3FGHIJ4J5M1RWXY/LB1D1 |
Departure
| Time | 2026-04-29 01:03 |
|---|---|
| Airport | Savannah Hilton Head International Airport (KSAV) |
Arrival
| Time | N/A |
|---|---|
| Airport | Raleigh-Durham International Airport (KRDU) |
| Time | Latitude | Longitude | Altitude | Speed | Heading |
|---|---|---|---|---|---|
| 2026-04-29 00:56 | 32.13907 | -81.20795 | 55 ft | 0 kts | 86° |
| 2026-04-29 01:01 | 32.13893 | -81.20773 | 55 ft | 10 kts | 156° |
| 2026-04-29 01:01 | 32.13868 | -81.20609 | 55 ft | 31 kts | 91° |
| 2026-04-29 01:02 | 32.13862 | -81.20367 | 55 ft | 22 kts | 110° |
| 2026-04-29 01:02 | 32.13671 | -81.20330 | 55 ft | 34 kts | 182° |
| 2026-04-29 01:02 | 32.13569 | -81.20274 | 55 ft | 21 kts | 88° |
| 2026-04-29 01:02 | 32.13571 | -81.20058 | 55 ft | 17 kts | 90° |
| 2026-04-29 01:03 | 32.13359 | -81.20010 | 55 ft | 79 kts | 180° |
| 2026-04-29 01:03 | 32.12463 | -81.20007 | 380 ft | 157 kts | 180° |
| 2026-04-29 01:03 | 32.11400 | -81.19973 | 1566 ft | 178 kts | 171° |
| 2026-04-29 01:03 | 32.10251 | -81.19096 | 2478 ft | 231 kts | 128° |
| 2026-04-29 01:04 | 32.09758 | -81.17256 | 3273 ft | 255 kts | 86° |
| 2026-04-29 01:04 | 32.10371 | -81.15234 | 4188 ft | 275 kts | 55° |
| 2026-04-29 01:04 | 32.11456 | -81.13389 | 5279 ft | 278 kts | 53° |
| 2026-04-29 01:04 | 32.12639 | -81.11610 | 6358 ft | 280 kts | 37° |
| 2026-04-29 01:05 | 32.14312 | -81.10566 | 7466 ft | 278 kts | 18° |
| 2026-04-29 01:05 | 32.16110 | -81.09697 | 8567 ft | 284 kts | 18° |
| 2026-04-29 01:05 | 32.17933 | -81.08823 | 9651 ft | 288 kts | 17° |
| 2026-04-29 01:05 | 32.19783 | -81.07948 | 10756 ft | 300 kts | 18° |
| 2026-04-29 01:06 | 32.21775 | -81.07008 | 11904 ft | 317 kts | 18° |
| 2026-04-29 01:06 | 32.23838 | -81.06034 | 13015 ft | 331 kts | 19° |
| 2026-04-29 01:06 | 32.25996 | -81.05012 | 14099 ft | 340 kts | 19° |
| 2026-04-29 01:06 | 32.28183 | -81.03978 | 15219 ft | 344 kts | 19° |
| 2026-04-29 01:07 | 32.30420 | -81.02917 | 16332 ft | 348 kts | 19° |
| 2026-04-29 01:07 | 32.32646 | -81.01864 | 17400 ft | 352 kts | 18° |
| 2026-04-29 01:07 | 32.34942 | -81.00779 | 18500 ft | 363 kts | 18° |
| 2026-04-29 01:07 | 32.37312 | -80.99659 | 19368 ft | 382 kts | 18° |
| 2026-04-29 01:08 | 32.39837 | -80.98463 | 20230 ft | 400 kts | 18° |
| 2026-04-29 01:08 | 32.42488 | -80.97208 | 21112 ft | 417 kts | 18° |
| 2026-04-29 01:08 | 32.45195 | -80.95924 | 21967 ft | 431 kts | 18° |
| 2026-04-29 01:08 | 32.48009 | -80.94588 | 22823 ft | 444 kts | 17° |
| 2026-04-29 01:09 | 32.50922 | -80.93206 | 23706 ft | 456 kts | 18° |
| 2026-04-29 01:09 | 32.53901 | -80.91790 | 24594 ft | 467 kts | 17° |
| 2026-04-29 01:09 | 32.56944 | -80.90344 | 25476 ft | 476 kts | 18° |
| 2026-04-29 01:09 | 32.60019 | -80.88879 | 26079 ft | 487 kts | 18° |
| 2026-04-29 01:10 | 32.63166 | -80.87381 | 26098 ft | 486 kts | 18° |
| 2026-04-29 01:10 | 32.66306 | -80.85882 | 26104 ft | 481 kts | 17° |
| 2026-04-29 01:10 | 32.69369 | -80.84422 | 26100 ft | 478 kts | 18° |
| 2026-04-29 01:10 | 32.72480 | -80.82938 | 26104 ft | 478 kts | 17° |
| 2026-04-29 01:11 | 32.75566 | -80.81464 | 26101 ft | 479 kts | 17° |
| 2026-04-29 01:11 | 32.78643 | -80.79993 | 26101 ft | 478 kts | 18° |
| 2026-04-29 01:11 | 32.81756 | -80.78503 | 26104 ft | 480 kts | 17° |
| 2026-04-29 01:11 | 32.84830 | -80.77032 | 26110 ft | 481 kts | 17° |
| 2026-04-29 01:12 | 32.87914 | -80.75555 | 26109 ft | 479 kts | 17° |
| 2026-04-29 01:12 | 32.91034 | -80.74059 | 26108 ft | 479 kts | 18° |
| 2026-04-29 01:12 | 32.94130 | -80.72574 | 26106 ft | 479 kts | 18° |
| 2026-04-29 01:12 | 32.97219 | -80.71091 | 26109 ft | 478 kts | 18° |
| 2026-04-29 01:13 | 33.00295 | -80.69612 | 26108 ft | 478 kts | 18° |
| 2026-04-29 01:13 | 33.03358 | -80.68139 | 26109 ft | 479 kts | 17° |
| 2026-04-29 01:13 | 33.06450 | -80.66651 | 26105 ft | 479 kts | 18° |
| 2026-04-29 01:13 | 33.09538 | -80.65164 | 26100 ft | 479 kts | 17° |
| 2026-04-29 01:14 | 33.12646 | -80.63666 | 26101 ft | 479 kts | 17° |
| 2026-04-29 01:14 | 33.15748 | -80.62170 | 26102 ft | 480 kts | 17° |
| 2026-04-29 01:14 | 33.18814 | -80.60690 | 26095 ft | 480 kts | 17° |
| 2026-04-29 01:14 | 33.21919 | -80.59190 | 26097 ft | 480 kts | 17° |
| 2026-04-29 01:15 | 33.24987 | -80.57707 | 26099 ft | 479 kts | 17° |
| 2026-04-29 01:15 | 33.28077 | -80.56213 | 26094 ft | 480 kts | 17° |
| 2026-04-29 01:15 | 33.31204 | -80.54697 | 26094 ft | 481 kts | 17° |
| 2026-04-29 01:15 | 33.34301 | -80.53198 | 26092 ft | 480 kts | 17° |
| 2026-04-29 01:16 | 33.37377 | -80.51707 | 26091 ft | 483 kts | 17° |
| 2026-04-29 01:16 | 33.40493 | -80.50195 | 26090 ft | 484 kts | 17° |
| 2026-04-29 01:16 | 33.43608 | -80.48680 | 26090 ft | 486 kts | 17° |
| 2026-04-29 01:16 | 33.46748 | -80.47156 | 26091 ft | 486 kts | 17° |
| 2026-04-29 01:17 | 33.49893 | -80.45624 | 26088 ft | 485 kts | 17° |
| 2026-04-29 01:17 | 33.52994 | -80.44115 | 26089 ft | 484 kts | 17° |
| 2026-04-29 01:17 | 33.56128 | -80.42587 | 26089 ft | 485 kts | 17° |
| 2026-04-29 01:17 | 33.59248 | -80.41067 | 26091 ft | 486 kts | 17° |
| 2026-04-29 01:18 | 33.62380 | -80.39538 | 26092 ft | 485 kts | 17° |
| 2026-04-29 01:18 | 33.68618 | -80.36491 | 26091 ft | 484 kts | 16° |
| 2026-04-29 01:18 | 33.71741 | -80.34964 | 26092 ft | 484 kts | 17° |
| 2026-04-29 01:19 | 33.74844 | -80.33446 | 26084 ft | 486 kts | 17° |
| 2026-04-29 01:19 | 33.77964 | -80.31915 | 26084 ft | 482 kts | 17° |
| 2026-04-29 01:19 | 33.81050 | -80.30401 | 26080 ft | 477 kts | 16° |
| 2026-04-29 01:19 | 33.84137 | -80.28889 | 26084 ft | 478 kts | 17° |
| 2026-04-29 01:20 | 33.87214 | -80.27379 | 26082 ft | 478 kts | 17° |
| 2026-04-29 01:20 | 33.90282 | -80.25870 | 26083 ft | 477 kts | 17° |
| 2026-04-29 01:20 | 33.93356 | -80.24359 | 26086 ft | 477 kts | 16° |
| 2026-04-29 01:20 | 33.96420 | -80.22850 | 26087 ft | 479 kts | 17° |
| 2026-04-29 01:21 | 33.99524 | -80.21322 | 26084 ft | 479 kts | 16° |
| 2026-04-29 01:21 | 34.02596 | -80.19807 | 26084 ft | 478 kts | 16° |
| 2026-04-29 01:21 | 34.05671 | -80.18290 | 26081 ft | 477 kts | 16° |
| 2026-04-29 01:21 | 34.08757 | -80.16766 | 26085 ft | 479 kts | 17° |
| 2026-04-29 01:22 | 34.11809 | -80.15258 | 26083 ft | 477 kts | 16° |
| 2026-04-29 01:22 | 34.14905 | -80.13728 | 26083 ft | 478 kts | 16° |
| 2026-04-29 01:22 | 34.17977 | -80.12208 | 26082 ft | 478 kts | 16° |
| 2026-04-29 01:22 | 34.21037 | -80.10691 | 26077 ft | 477 kts | 16° |
| 2026-04-29 01:23 | 34.22467 | -80.09984 | 26083 ft | 478 kts | 16° |
| 2026-04-29 01:23 | 34.24047 | -80.09199 | 26083 ft | 477 kts | 16° |
| 2026-04-29 01:23 | 34.27103 | -80.07684 | 26085 ft | 478 kts | 16° |
| 2026-04-29 01:23 | 34.30177 | -80.06158 | 26089 ft | 478 kts | 16° |
| 2026-04-29 01:24 | 34.33245 | -80.04633 | 26089 ft | 476 kts | 16° |
| 2026-04-29 01:24 | 34.36309 | -80.03109 | 26095 ft | 476 kts | 16° |
| 2026-04-29 01:24 | 34.39379 | -80.01582 | 25938 ft | 479 kts | 16° |
| 2026-04-29 01:24 | 34.42465 | -80.00045 | 25488 ft | 477 kts | 16° |
| 2026-04-29 01:25 | 34.45484 | -79.98539 | 24988 ft | 472 kts | 16° |
| 2026-04-29 01:25 | 34.48493 | -79.97038 | 24480 ft | 466 kts | 16° |
| 2026-04-29 01:25 | 34.51461 | -79.95556 | 23972 ft | 458 kts | 16° |
| 2026-04-29 01:25 | 34.54411 | -79.94083 | 23471 ft | 455 kts | 16° |
| 2026-04-29 01:26 | 34.57323 | -79.92627 | 22970 ft | 452 kts | 16° |
| 2026-04-29 01:26 | 34.60186 | -79.91196 | 22481 ft | 446 kts | 17° |
| 2026-04-29 01:26 | 34.63020 | -79.89774 | 21997 ft | 435 kts | 17° |
| 2026-04-29 01:26 | 34.65788 | -79.88386 | 21515 ft | 419 kts | 17° |
| 2026-04-29 01:27 | 34.68380 | -79.86972 | 21108 ft | 408 kts | 24° |
| 2026-04-29 01:27 | 34.70707 | -79.85033 | 21093 ft | 411 kts | 29° |
| 2026-04-29 01:27 | 34.73121 | -79.82935 | 21133 ft | 450 kts | 30° |
| 2026-04-29 01:27 | 34.75441 | -79.80892 | 21148 ft | 464 kts | 30° |